Terminal Aerodrome Forecast
Issued by NWS

Home | Current Version | Previous Version | Text Only | Print | Product List | Glossary On
Versions: 1 2 3 4 5 6 7 8 9 10 11 12 13 14 15
000
FTUS44 KEPZ 240520
TAFLRU
TAF
KLRU 240520Z 2406/2506 25014G24KT P6SM FEW120 SCT250
     FM241200 25024G34KT P6SM BKN100 OVC200
     FM250000 27017G27KT P6SM SCT100 BKN200=

USA.gov is the U.S. government's official web portal to all federal, state and local government web resources and services.